createdAt,value
2023-02-11T00:06:00.844Z,-4.00
2023-02-11T00:16:08.149Z,-3.64
2023-02-11T00:26:36.655Z,-3.43
2023-02-11T00:36:39.115Z,-3.63
2023-02-11T00:46:41.538Z,-3.77
2023-02-11T00:56:43.770Z,-3.32
2023-02-11T01:06:46.023Z,-3.08
2023-02-11T01:16:48.219Z,-2.79
2023-02-11T01:26:50.474Z,-2.16
2023-02-11T01:36:57.946Z,-1.90
2023-02-11T01:47:00.633Z,-1.85
2023-02-11T01:57:22.279Z,-1.90
2023-02-11T02:08:05.620Z,-1.44
2023-02-11T02:18:10.449Z,-0.98
2023-02-11T02:28:45.731Z,-0.79
2023-02-11T02:39:04.392Z,-0.61
2023-02-11T02:49:12.489Z,-0.63
2023-02-11T02:59:34.128Z,-0.47
2023-02-11T03:09:55.105Z,-0.56
2023-02-11T03:20:00.138Z,-0.49
2023-02-11T03:30:08.644Z,-0.53
2023-02-11T03:40:21.282Z,-0.53
2023-02-11T03:50:26.398Z,-0.52
2023-02-11T04:00:34.745Z,-0.25
2023-02-11T04:10:37.349Z,-0.13
2023-02-11T04:20:39.693Z,-0.37
2023-02-11T04:30:41.936Z,0.10
2023-02-11T04:40:44.190Z,0.19
2023-02-11T04:50:46.362Z,0.23
2023-02-11T06:05:10.499Z,-0.30
2023-02-11T06:15:12.723Z,0.28
2023-02-11T06:25:15.196Z,0.60
2023-02-11T06:35:17.424Z,0.94
2023-02-11T06:45:20.968Z,1.02
2023-02-11T06:55:23.208Z,1.07
2023-02-11T07:05:25.682Z,1.23
2023-02-11T07:15:27.989Z,1.26
2023-02-11T07:25:30.306Z,1.43
2023-02-11T07:35:32.486Z,1.70
2023-02-11T07:45:34.777Z,2.06
2023-02-11T07:55:37.017Z,2.23
2023-02-11T08:05:39.353Z,1.80
2023-02-11T08:15:41.513Z,2.12
2023-02-11T08:25:43.743Z,2.46
2023-02-11T08:35:46.002Z,2.55
2023-02-11T08:45:48.698Z,2.53
2023-02-11T08:55:55.544Z,2.67
2023-02-11T09:05:57.890Z,3.05
2023-02-11T09:16:02.036Z,3.98
2023-02-11T09:26:09.709Z,4.23
2023-02-11T09:36:12.014Z,3.97
2023-02-11T09:46:17.260Z,3.75
2023-02-11T09:56:19.546Z,4.02
2023-02-11T10:06:24.530Z,4.33
2023-02-11T10:16:43.302Z,4.44
2023-02-11T10:26:46.450Z,4.80
2023-02-11T10:36:48.849Z,4.47
2023-02-11T10:46:52.272Z,4.18
2023-02-11T10:57:00.463Z,4.08
2023-02-11T11:07:21.981Z,3.94
2023-02-11T11:17:24.466Z,4.27
2023-02-11T11:27:26.880Z,4.38
2023-02-11T11:37:31.987Z,4.82
2023-02-11T11:47:45.118Z,4.92
2023-02-11T11:57:48.106Z,5.04
2023-02-11T12:08:27.899Z,4.81
2023-02-11T12:19:04.978Z,4.60
2023-02-11T12:29:37.188Z,4.38
2023-02-11T12:40:13.114Z,4.26
2023-02-11T12:50:21.394Z,4.51
2023-02-11T13:00:29.715Z,4.25
2023-02-11T13:10:36.222Z,4.46
2023-02-11T13:20:52.108Z,4.60
2023-02-11T13:31:02.825Z,4.68
2023-02-11T13:41:28.912Z,4.44
2023-02-11T13:51:38.395Z,4.51
2023-02-11T14:02:08.175Z,4.60
2023-02-11T14:12:21.764Z,4.73
2023-02-11T14:22:39.944Z,4.42
2023-02-11T14:33:06.770Z,4.45
2023-02-11T14:43:16.922Z,4.20
2023-02-11T14:53:23.651Z,4.29
2023-02-11T15:03:33.236Z,4.10
2023-02-11T15:13:35.556Z,4.07
2023-02-11T15:23:39.073Z,4.00
2023-02-11T15:33:42.256Z,3.99
2023-02-11T15:43:51.184Z,4.00
2023-02-11T15:53:57.182Z,3.99
2023-02-11T16:04:00.271Z,4.00
2023-02-11T16:14:19.494Z,3.96
2023-02-11T16:24:29.157Z,3.98
2023-02-11T16:34:31.361Z,3.99
2023-02-11T16:44:34.613Z,3.90
2023-02-11T16:54:36.846Z,3.90
2023-02-11T17:04:39.198Z,3.78
2023-02-11T17:14:41.488Z,3.90
2023-02-11T17:24:43.734Z,3.88
2023-02-11T17:34:46.030Z,3.83
2023-02-11T17:44:48.297Z,3.91
2023-02-11T17:54:50.531Z,3.84
2023-02-11T18:04:53.432Z,3.94
2023-02-11T18:14:58.044Z,4.02
2023-02-11T18:25:00.585Z,4.09
2023-02-11T18:35:02.763Z,4.08
2023-02-11T18:45:09.522Z,4.07
2023-02-11T18:55:11.760Z,4.18
2023-02-11T19:05:14.004Z,4.08
2023-02-11T19:15:16.349Z,3.95
2023-02-11T19:25:19.023Z,4.05
2023-02-11T19:35:21.306Z,4.16
2023-02-11T19:45:23.583Z,4.04
2023-02-11T19:55:25.825Z,4.04
2023-02-11T20:05:28.117Z,4.02
2023-02-11T20:15:30.339Z,3.85
2023-02-11T20:25:32.601Z,3.86
2023-02-11T20:35:34.790Z,3.69
2023-02-11T20:45:37.130Z,3.61
2023-02-11T20:55:39.564Z,3.59
2023-02-11T21:05:41.736Z,3.70
2023-02-11T21:15:44.044Z,3.56
2023-02-11T21:25:46.482Z,3.58
2023-02-11T21:40:11.494Z,3.55
2023-02-11T21:50:13.758Z,3.58
2023-02-11T22:00:16.736Z,3.72
2023-02-11T22:10:19.779Z,3.77
2023-02-11T22:20:22.147Z,3.82
2023-02-11T22:30:24.416Z,3.85
2023-02-11T22:40:26.690Z,3.84
2023-02-11T22:50:28.889Z,3.84
2023-02-11T23:00:35.480Z,3.76
2023-02-11T23:10:39.273Z,3.81
2023-02-11T23:20:43.624Z,3.70
2023-02-11T23:30:45.801Z,3.72
2023-02-11T23:40:47.986Z,3.72
2023-02-11T23:50:50.158Z,3.71
